sensor_id;sensor_type;location;lat;lon;timestamp;pressure;altitude;pressure_sealevel;temperature;humidity
63715;BME280;49858;48.956;9.076;2023-03-23T00:00:14;98139.69;;;14.71;96.21
63715;BME280;49858;48.956;9.076;2023-03-23T00:02:41;98135.69;;;15.11;94.87
63715;BME280;49858;48.956;9.076;2023-03-23T00:05:09;98134.59;;;14.59;94.16
63715;BME280;49858;48.956;9.076;2023-03-23T00:07:35;98131.44;;;14.49;95.23
63715;BME280;49858;48.956;9.076;2023-03-23T00:10:04;98127.47;;;14.65;95.23
63715;BME280;49858;48.956;9.076;2023-03-23T00:12:32;98130.22;;;14.61;95.13
63715;BME280;49858;48.956;9.076;2023-03-23T00:15:03;98125.84;;;14.85;94.24
63715;BME280;49858;48.956;9.076;2023-03-23T00:17:34;98129.44;;;14.61;94.60
63715;BME280;49858;48.956;9.076;2023-03-23T00:20:02;98136.94;;;14.56;95.07
63715;BME280;49858;48.956;9.076;2023-03-23T00:22:31;98127.47;;;14.50;95.56
63715;BME280;49858;48.956;9.076;2023-03-23T00:25:06;98118.75;;;14.70;94.56
63715;BME280;49858;48.956;9.076;2023-03-23T00:27:34;98118.75;;;14.73;95.47
63715;BME280;49858;48.956;9.076;2023-03-23T00:30:01;98117.56;;;14.78;93.97
63715;BME280;49858;48.956;9.076;2023-03-23T00:32:28;98107.66;;;14.84;94.76
63715;BME280;49858;48.956;9.076;2023-03-23T00:34:56;98112.81;;;14.46;95.68
63715;BME280;49858;48.956;9.076;2023-03-23T00:37:24;98112.41;;;14.83;93.94
63715;BME280;49858;48.956;9.076;2023-03-23T00:39:51;98102.53;;;14.65;94.71
63715;BME280;49858;48.956;9.076;2023-03-23T00:42:24;98096.22;;;14.61;95.77
63715;BME280;49858;48.956;9.076;2023-03-23T00:44:52;98092.66;;;14.64;95.18
63715;BME280;49858;48.956;9.076;2023-03-23T00:47:25;98088.25;;;14.84;95.14
63715;BME280;49858;48.956;9.076;2023-03-23T00:49:52;98086.25;;;14.99;94.86
63715;BME280;49858;48.956;9.076;2023-03-23T00:52:21;98084.75;;;14.66;97.03
63715;BME280;49858;48.956;9.076;2023-03-23T00:54:48;98081.19;;;14.69;96.76
63715;BME280;49858;48.956;9.076;2023-03-23T00:57:15;98083.94;;;14.76;95.73
63715;BME280;49858;48.956;9.076;2023-03-23T00:59:44;98085.13;;;14.75;96.19
63715;BME280;49858;48.956;9.076;2023-03-23T01:02:13;98075.09;;;15.17;94.54
63715;BME280;49858;48.956;9.076;2023-03-23T01:04:40;98084.97;;;15.25;94.27
63715;BME280;49858;48.956;9.076;2023-03-23T01:07:10;98086.53;;;15.26;94.37
63715;BME280;49858;48.956;9.076;2023-03-23T01:09:38;98087.03;;;15.03;96.46
63715;BME280;49858;48.956;9.076;2023-03-23T01:12:05;98079.09;;;15.05;95.48
63715;BME280;49858;48.956;9.076;2023-03-23T01:14:32;98085.41;;;15.09;95.03
63715;BME280;49858;48.956;9.076;2023-03-23T01:17:00;98074.78;;;14.97;95.65
63715;BME280;49858;48.956;9.076;2023-03-23T01:19:28;98081.38;;;15.31;95.14
63715;BME280;49858;48.956;9.076;2023-03-23T01:21:55;98070.78;;;15.08;95.41
63715;BME280;49858;48.956;9.076;2023-03-23T01:24:21;98068.47;;;14.93;96.25
63715;BME280;49858;48.956;9.076;2023-03-23T01:26:48;98073.25;;;14.78;97.25
63715;BME280;49858;48.956;9.076;2023-03-23T01:29:15;98074.41;;;14.80;98.03
63715;BME280;49858;48.956;9.076;2023-03-23T01:31:42;98060.16;;;14.86;97.40
63715;BME280;49858;48.956;9.076;2023-03-23T01:34:10;98069.56;;;15.17;95.35
63715;BME280;49858;48.956;9.076;2023-03-23T01:36:38;98056.97;;;14.94;96.48
63715;BME280;49858;48.956;9.076;2023-03-23T01:39:05;98056.19;;;15.01;95.99
63715;BME280;49858;48.956;9.076;2023-03-23T01:41:33;98052.31;;;14.73;97.15
63715;BME280;49858;48.956;9.076;2023-03-23T01:44:07;98053.06;;;14.88;97.07
63715;BME280;49858;48.956;9.076;2023-03-23T01:46:40;98050.16;;;15.20;97.03
63715;BME280;49858;48.956;9.076;2023-03-23T01:49:09;98043.59;;;14.78;97.11
63715;BME280;49858;48.956;9.076;2023-03-23T01:51:45;98045.19;;;14.69;98.40
63715;BME280;49858;48.956;9.076;2023-03-23T01:54:14;98046.81;;;14.48;98.39
63715;BME280;49858;48.956;9.076;2023-03-23T01:56:48;98050.59;;;15.08;97.20
63715;BME280;49858;48.956;9.076;2023-03-23T01:59:17;98041.28;;;14.55;98.08
63715;BME280;49858;48.956;9.076;2023-03-23T02:01:48;98048.75;;;14.44;99.95
63715;BME280;49858;48.956;9.076;2023-03-23T02:04:19;98042.84;;;14.53;98.07
63715;BME280;49858;48.956;9.076;2023-03-23T02:06:48;98042.44;;;14.62;98.24
63715;BME280;49858;48.956;9.076;2023-03-23T02:09:19;98042.84;;;14.42;99.38
63715;BME280;49858;48.956;9.076;2023-03-23T02:11:48;98037.31;;;14.21;99.38
63715;BME280;49858;48.956;9.076;2023-03-23T02:14:16;98042.06;;;14.56;98.69
63715;BME280;49858;48.956;9.076;2023-03-23T02:16:47;98040.47;;;14.48;99.30
63715;BME280;49858;48.956;9.076;2023-03-23T02:19:33;98038.09;;;14.64;98.02
63715;BME280;49858;48.956;9.076;2023-03-23T02:22:29;98036.16;;;14.54;98.07
63715;BME280;49858;48.956;9.076;2023-03-23T02:25:16;98028.59;;;14.69;97.69
63715;BME280;49858;48.956;9.076;2023-03-23T02:28:16;98029.00;;;14.64;97.40
63715;BME280;49858;48.956;9.076;2023-03-23T02:31:04;98033.28;;;14.82;98.01
63715;BME280;49858;48.956;9.076;2023-03-23T02:33:40;98018.28;;;14.73;97.19
63715;BME280;49858;48.956;9.076;2023-03-23T02:36:17;98013.13;;;14.71;98.65
63715;BME280;49858;48.956;9.076;2023-03-23T02:38:54;98008.78;;;14.77;97.59
63715;BME280;49858;48.956;9.076;2023-03-23T02:41:24;98008.78;;;14.77;96.40
63715;BME280;49858;48.956;9.076;2023-03-23T02:43:54;98005.50;;;15.07;95.87
63715;BME280;49858;48.956;9.076;2023-03-23T02:46:22;97996.53;;;14.68;96.82
63715;BME280;49858;48.956;9.076;2023-03-23T02:48:53;98001.69;;;14.62;96.32
63715;BME280;49858;48.956;9.076;2023-03-23T02:51:22;97985.81;;;14.84;95.13
63715;BME280;49858;48.956;9.076;2023-03-23T02:53:51;97985.38;;;14.96;93.96
63715;BME280;49858;48.956;9.076;2023-03-23T02:56:20;97985.38;;;14.96;93.47
63715;BME280;49858;48.956;9.076;2023-03-23T02:58:49;97992.50;;;14.90;93.50
63715;BME280;49858;48.956;9.076;2023-03-23T03:04:31;97975.75;;;15.19;92.78
63715;BME280;49858;48.956;9.076;2023-03-23T03:07:09;97976.31;;;15.51;91.54
63715;BME280;49858;48.956;9.076;2023-03-23T03:09:46;97974.41;;;14.68;95.42
63715;BME280;49858;48.956;9.076;2023-03-23T03:12:21;97977.13;;;14.82;95.88
63715;BME280;49858;48.956;9.076;2023-03-23T03:14:56;97966.88;;;14.72;96.43
63715;BME280;49858;48.956;9.076;2023-03-23T03:17:26;97970.16;;;14.27;98.24
63715;BME280;49858;48.956;9.076;2023-03-23T03:19:57;97965.00;;;14.29;98.39
63715;BME280;49858;48.956;9.076;2023-03-23T03:22:27;97970.91;;;14.46;98.45
63715;BME280;49858;48.956;9.076;2023-03-23T03:24:57;97962.25;;;14.26;98.72
63715;BME280;49858;48.956;9.076;2023-03-23T03:27:25;97965.41;;;14.21;100.00
63715;BME280;49858;48.956;9.076;2023-03-23T03:30:08;97970.09;;;14.56;97.64
63715;BME280;49858;48.956;9.076;2023-03-23T03:32:43;97965.75;;;14.51;98.52
63715;BME280;49858;48.956;9.076;2023-03-23T03:35:16;97970.84;;;14.71;96.86
63715;BME280;49858;48.956;9.076;2023-03-23T03:37:43;97966.97;;;14.50;97.42
63715;BME280;49858;48.956;9.076;2023-03-23T03:40:14;97967.75;;;14.37;97.26
63715;BME280;49858;48.956;9.076;2023-03-23T03:42:43;97966.56;;;14.41;97.59
63715;BME280;49858;48.956;9.076;2023-03-23T03:45:14;97959.88;;;14.35;98.43
63715;BME280;49858;48.956;9.076;2023-03-23T03:47:41;97959.41;;;14.47;96.92
63715;BME280;49858;48.956;9.076;2023-03-23T03:50:09;97960.97;;;14.63;96.64
63715;BME280;49858;48.956;9.076;2023-03-23T03:52:37;97958.66;;;14.50;96.67
63715;BME280;49858;48.956;9.076;2023-03-23T03:55:07;97959.03;;;14.52;97.23
63715;BME280;49858;48.956;9.076;2023-03-23T03:57:36;97965.41;;;14.28;97.79
63715;BME280;49858;48.956;9.076;2023-03-23T04:00:18;97959.81;;;14.46;98.41
63715;BME280;49858;48.956;9.076;2023-03-23T04:02:48;97967.75;;;14.54;97.30
63715;BME280;49858;48.956;9.076;2023-03-23T04:05:45;97956.72;;;14.19;99.46
63715;BME280;49858;48.956;9.076;2023-03-23T04:08:13;97973.75;;;13.81;100.00
63715;BME280;49858;48.956;9.076;2023-03-23T04:10:41;97976.50;;;13.81;100.00
63715;BME280;49858;48.956;9.076;2023-03-23T04:13:08;97982.84;;;13.89;100.00
63715;BME280;49858;48.956;9.076;2023-03-23T04:15:56;97982.84;;;13.82;100.00
63715;BME280;49858;48.956;9.076;2023-03-23T04:18:23;97973.75;;;13.92;100.00
63715;BME280;49858;48.956;9.076;2023-03-23T04:20:50;97970.97;;;13.92;100.00
63715;BME280;49858;48.956;9.076;2023-03-23T04:23:21;97968.56;;;14.19;100.00
63715;BME280;49858;48.956;9.076;2023-03-23T04:25:50;97953.56;;;14.20;100.00
63715;BME280;49858;48.956;9.076;2023-03-23T04:28:19;97947.97;;;14.38;99.57
63715;BME280;49858;48.956;9.076;2023-03-23T04:31:11;97957.84;;;14.43;99.06
63715;BME280;49858;48.956;9.076;2023-03-23T04:33:44;97955.41;;;14.70;98.67
63715;BME280;49858;48.956;9.076;2023-03-23T04:36:13;97950.72;;;14.52;99.84
63715;BME280;49858;48.956;9.076;2023-03-23T04:38:53;97949.94;;;14.59;99.19
63715;BME280;49858;48.956;9.076;2023-03-23T04:41:21;97964.56;;;14.60;99.76
63715;BME280;49858;48.956;9.076;2023-03-23T04:44:12;97958.59;;;14.65;98.56
63715;BME280;49858;48.956;9.076;2023-03-23T04:46:53;97951.09;;;14.62;99.06
63715;BME280;49858;48.956;9.076;2023-03-23T04:49:21;97964.56;;;14.52;100.00
63715;BME280;49858;48.956;9.076;2023-03-23T04:51:53;97947.50;;;14.72;98.51
63715;BME280;49858;48.956;9.076;2023-03-23T04:54:41;97971.56;;;14.86;97.60
63715;BME280;49858;48.956;9.076;2023-03-23T04:57:08;97972.88;;;14.35;100.00
63715;BME280;49858;48.956;9.076;2023-03-23T04:59:39;97974.03;;;14.66;98.30
63715;BME280;49858;48.956;9.076;2023-03-23T05:02:16;97973.66;;;14.46;99.81
63715;BME280;49858;48.956;9.076;2023-03-23T05:04:45;97977.63;;;14.41;98.03
63715;BME280;49858;48.956;9.076;2023-03-23T05:07:16;97968.84;;;14.71;97.05
63715;BME280;49858;48.956;9.076;2023-03-23T05:09:48;97969.31;;;14.55;98.26
63715;BME280;49858;48.956;9.076;2023-03-23T05:12:19;97968.53;;;14.51;97.27
63715;BME280;49858;48.956;9.076;2023-03-23T05:14:56;97972.81;;;14.63;97.14
63715;BME280;49858;48.956;9.076;2023-03-23T05:17:26;97960.06;;;14.91;96.94
63715;BME280;49858;48.956;9.076;2023-03-23T05:19:56;97968.13;;;15.33;95.08
63715;BME280;49858;48.956;9.076;2023-03-23T05:22:34;97966.81;;;14.86;97.75
63715;BME280;49858;48.956;9.076;2023-03-23T05:25:06;97970.81;;;14.74;98.72
63715;BME280;49858;48.956;9.076;2023-03-23T05:27:38;97967.69;;;14.62;98.86
63715;BME280;49858;48.956;9.076;2023-03-23T05:30:20;97973.28;;;14.51;99.24
63715;BME280;49858;48.956;9.076;2023-03-23T05:32:48;97972.03;;;14.70;99.28
63715;BME280;49858;48.956;9.076;2023-03-23T05:35:38;97966.91;;;14.57;100.00
63715;BME280;49858;48.956;9.076;2023-03-23T05:38:06;97968.16;;;14.35;100.00
63715;BME280;49858;48.956;9.076;2023-03-23T05:40:34;97970.16;;;14.31;100.00
63715;BME280;49858;48.956;9.076;2023-03-23T05:43:08;97968.50;;;14.44;99.31
63715;BME280;49858;48.956;9.076;2023-03-23T05:45:49;97968.13;;;14.42;98.22
63715;BME280;49858;48.956;9.076;2023-03-23T05:48:16;97978.81;;;14.54;97.93
63715;BME280;49858;48.956;9.076;2023-03-23T05:50:43;97977.22;;;14.53;98.30
63715;BME280;49858;48.956;9.076;2023-03-23T05:53:10;97979.78;;;15.00;96.71
63715;BME280;49858;48.956;9.076;2023-03-23T05:55:40;97985.88;;;14.63;98.32
63715;BME280;49858;48.956;9.076;2023-03-23T05:58:28;97988.22;;;14.71;97.37
63715;BME280;49858;48.956;9.076;2023-03-23T06:00:55;98000.09;;;14.72;97.45
63715;BME280;49858;48.956;9.076;2023-03-23T06:03:26;97994.53;;;14.79;97.32
63715;BME280;49858;48.956;9.076;2023-03-23T06:06:02;97994.34;;;15.22;95.38
63715;BME280;49858;48.956;9.076;2023-03-23T06:08:40;97995.91;;;15.19;96.18
63715;BME280;49858;48.956;9.076;2023-03-23T06:11:08;98005.56;;;14.93;96.63
63715;BME280;49858;48.956;9.076;2023-03-23T06:13:41;98008.03;;;14.66;97.53
63715;BME280;49858;48.956;9.076;2023-03-23T06:16:11;98016.56;;;15.07;97.40
63715;BME280;49858;48.956;9.076;2023-03-23T06:18:47;98024.63;;;14.66;98.55
63715;BME280;49858;48.956;9.076;2023-03-23T06:21:33;98032.47;;;14.96;98.00
63715;BME280;49858;48.956;9.076;2023-03-23T06:24:21;98039.69;;;14.29;100.00
63715;BME280;49858;48.956;9.076;2023-03-23T06:26:50;98046.00;;;14.37;100.00
63715;BME280;49858;48.956;9.076;2023-03-23T06:29:20;98050.75;;;14.44;100.00
63715;BME280;49858;48.956;9.076;2023-03-23T06:31:55;98042.81;;;15.58;100.00
63715;BME280;49858;48.956;9.076;2023-03-23T06:34:25;98052.41;;;15.43;99.29
63715;BME280;49858;48.956;9.076;2023-03-23T06:36:58;98064.94;;;15.73;98.17
63715;BME280;49858;48.956;9.076;2023-03-23T06:39:36;98064.53;;;16.26;95.87
63715;BME280;49858;48.956;9.076;2023-03-23T06:42:17;98070.47;;;16.73;93.33
63715;BME280;49858;48.956;9.076;2023-03-23T06:44:50;98063.06;;;16.56;94.03
63715;BME280;49858;48.956;9.076;2023-03-23T06:47:18;98062.09;;;15.80;95.65
63715;BME280;49858;48.956;9.076;2023-03-23T06:49:46;98049.94;;;16.19;94.10
63715;BME280;49858;48.956;9.076;2023-03-23T06:52:25;98059.47;;;15.51;96.90
63715;BME280;49858;48.956;9.076;2023-03-23T06:54:53;98056.41;;;16.46;93.81
63715;BME280;49858;48.956;9.076;2023-03-23T06:57:22;98054.25;;;16.65;92.13
63715;BME280;49858;48.956;9.076;2023-03-23T06:59:50;98051.63;;;16.92;91.59
63715;BME280;49858;48.956;9.076;2023-03-23T07:02:18;98046.03;;;17.26;89.41
63715;BME280;49858;48.956;9.076;2023-03-23T07:04:48;98055.38;;;16.33;93.84
63715;BME280;49858;48.956;9.076;2023-03-23T07:07:20;98065.53;;;16.88;92.69
63715;BME280;49858;48.956;9.076;2023-03-23T07:10:09;98070.56;;;15.51;98.70
63715;BME280;49858;48.956;9.076;2023-03-23T07:12:39;98081.06;;;15.12;100.00
63715;BME280;49858;48.956;9.076;2023-03-23T07:15:08;98088.69;;;14.75;100.00
63715;BME280;49858;48.956;9.076;2023-03-23T07:17:38;98089.41;;;14.94;100.00
63715;BME280;49858;48.956;9.076;2023-03-23T07:20:17;98101.72;;;14.68;100.00
63715;BME280;49858;48.956;9.076;2023-03-23T07:22:44;98100.94;;;14.78;100.00
63715;BME280;49858;48.956;9.076;2023-03-23T07:25:21;98108.47;;;14.74;100.00
63715;BME280;49858;48.956;9.076;2023-03-23T07:27:53;98107.97;;;15.07;100.00
63715;BME280;49858;48.956;9.076;2023-03-23T07:30:20;98117.16;;;14.76;100.00
63715;BME280;49858;48.956;9.076;2023-03-23T07:32:47;98114.81;;;14.49;100.00
63715;BME280;49858;48.956;9.076;2023-03-23T07:35:14;98130.59;;;14.27;100.00
63715;BME280;49858;48.956;9.076;2023-03-23T07:37:50;98127.47;;;14.50;100.00
63715;BME280;49858;48.956;9.076;2023-03-23T07:40:18;98128.22;;;14.37;100.00
63715;BME280;49858;48.956;9.076;2023-03-23T07:42:54;98135.34;;;14.77;100.00
63715;BME280;49858;48.956;9.076;2023-03-23T07:45:41;98125.88;;;14.60;100.00
63715;BME280;49858;48.956;9.076;2023-03-23T07:48:08;98129.84;;;14.52;100.00
63715;BME280;49858;48.956;9.076;2023-03-23T07:50:35;98127.88;;;14.60;100.00
63715;BME280;49858;48.956;9.076;2023-03-23T07:53:06;98115.56;;;14.75;100.00
63715;BME280;49858;48.956;9.076;2023-03-23T07:55:35;98125.09;;;14.52;100.00
63715;BME280;49858;48.956;9.076;2023-03-23T07:58:39;98128.63;;;14.74;100.00
63715;BME280;49858;48.956;9.076;2023-03-23T08:01:06;98140.47;;;14.89;100.00
63715;BME280;49858;48.956;9.076;2023-03-23T08:03:36;98128.59;;;14.81;100.00
63715;BME280;49858;48.956;9.076;2023-03-23T08:06:25;98145.25;;;14.64;100.00
63715;BME280;49858;48.956;9.076;2023-03-23T08:09:18;98136.88;;;15.03;100.00
63715;BME280;49858;48.956;9.076;2023-03-23T08:12:14;98143.25;;;14.39;100.00
63715;BME280;49858;48.956;9.076;2023-03-23T08:15:00;98137.69;;;14.89;100.00
63715;BME280;49858;48.956;9.076;2023-03-23T08:17:59;98139.97;;;15.30;100.00
63715;BME280;49858;48.956;9.076;2023-03-23T08:20:45;98151.56;;;14.61;100.00
63715;BME280;49858;48.956;9.076;2023-03-23T08:23:33;98153.53;;;14.71;100.00
63715;BME280;49858;48.956;9.076;2023-03-23T08:26:29;98159.41;;;15.08;100.00
63715;BME280;49858;48.956;9.076;2023-03-23T08:29:31;98159.84;;;14.39;100.00
63715;BME280;49858;48.956;9.076;2023-03-23T08:32:18;98155.88;;;14.44;100.00
63715;BME280;49858;48.956;9.076;2023-03-23T08:35:12;98147.19;;;14.38;100.00
63715;BME280;49858;48.956;9.076;2023-03-23T08:37:59;98150.34;;;14.19;100.00
63715;BME280;49858;48.956;9.076;2023-03-23T08:40:34;98155.88;;;14.15;100.00
63715;BME280;49858;48.956;9.076;2023-03-23T08:43:40;98160.25;;;14.27;100.00
63715;BME280;49858;48.956;9.076;2023-03-23T08:46:39;98163.00;;;14.23;100.00
63715;BME280;49858;48.956;9.076;2023-03-23T08:49:27;98174.06;;;14.13;100.00
63715;BME280;49858;48.956;9.076;2023-03-23T08:52:00;98173.25;;;14.09;100.00
63715;BME280;49858;48.956;9.076;2023-03-23T09:18:34;98199.00;;;14.48;100.00
63715;BME280;49858;48.956;9.076;2023-03-23T09:21:02;98199.81;;;14.60;100.00
63715;BME280;49858;48.956;9.076;2023-03-23T09:23:29;98210.50;;;14.65;100.00
63715;BME280;49858;48.956;9.076;2023-03-23T09:25:56;98210.50;;;14.54;100.00
63715;BME280;49858;48.956;9.076;2023-03-23T09:28:23;98223.47;;;14.21;100.00
63715;BME280;49858;48.956;9.076;2023-03-23T09:30:50;98238.50;;;14.31;100.00
63715;BME280;49858;48.956;9.076;2023-03-23T09:33:16;98258.09;;;13.83;100.00
63715;BME280;49858;48.956;9.076;2023-03-23T09:35:45;98260.78;;;13.69;100.00
63715;BME280;49858;48.956;9.076;2023-03-23T09:38:11;98237.47;;;13.55;100.00
63715;BME280;49858;48.956;9.076;2023-03-23T09:40:43;98240.22;;;13.55;100.00
63715;BME280;49858;48.956;9.076;2023-03-23T09:43:28;98230.81;;;13.78;100.00
63715;BME280;49858;48.956;9.076;2023-03-23T09:46:06;98234.72;;;13.63;100.00
63715;BME280;49858;48.956;9.076;2023-03-23T09:48:48;98242.41;;;14.09;100.00
63715;BME280;49858;48.956;9.076;2023-03-23T09:51:27;98265.28;;;14.05;100.00
63715;BME280;49858;48.956;9.076;2023-03-23T09:54:00;98246.78;;;14.17;100.00
63715;BME280;49858;48.956;9.076;2023-03-23T09:56:30;98253.50;;;14.30;100.00
63715;BME280;49858;48.956;9.076;2023-03-23T09:59:00;98259.75;;;14.05;100.00
63715;BME280;49858;48.956;9.076;2023-03-23T10:01:32;98246.75;;;14.20;100.00
63715;BME280;49858;48.956;9.076;2023-03-23T10:04:03;98249.94;;;14.19;100.00
63715;BME280;49858;48.956;9.076;2023-03-23T10:06:33;98253.47;;;14.16;100.00
63715;BME280;49858;48.956;9.076;2023-03-23T10:09:03;98256.63;;;14.11;100.00
63715;BME280;49858;48.956;9.076;2023-03-23T10:11:38;98270.19;;;13.53;100.00
63715;BME280;49858;48.956;9.076;2023-03-23T10:14:15;98264.84;;;13.86;100.00
63715;BME280;49858;48.956;9.076;2023-03-23T10:16:54;98264.44;;;13.87;100.00
63715;BME280;49858;48.956;9.076;2023-03-23T10:19:27;98273.09;;;13.78;100.00
63715;BME280;49858;48.956;9.076;2023-03-23T10:21:59;98268.84;;;13.99;100.00
63715;BME280;49858;48.956;9.076;2023-03-23T10:24:34;98283.09;;;14.15;100.00
63715;BME280;49858;48.956;9.076;2023-03-23T10:27:10;98282.31;;;14.07;100.00
63715;BME280;49858;48.956;9.076;2023-03-23T10:29:44;98275.63;;;14.23;100.00
63715;BME280;49858;48.956;9.076;2023-03-23T10:32:15;98265.06;;;14.61;100.00
63715;BME280;49858;48.956;9.076;2023-03-23T10:34:53;98274.59;;;14.88;100.00
63715;BME280;49858;48.956;9.076;2023-03-23T10:37:25;98266.66;;;14.69;100.00
63715;BME280;49858;48.956;9.076;2023-03-23T10:39:55;98276.53;;;14.63;100.00
63715;BME280;49858;48.956;9.076;2023-03-23T10:42:24;98268.22;;;14.55;100.00
63715;BME280;49858;48.956;9.076;2023-03-23T10:44:55;98272.88;;;14.30;100.00
63715;BME280;49858;48.956;9.076;2023-03-23T10:47:23;98272.19;;;14.54;100.00
63715;BME280;49858;48.956;9.076;2023-03-23T10:49:52;98268.13;;;14.27;100.00
63715;BME280;49858;48.956;9.076;2023-03-23T10:52:30;98267.75;;;14.32;100.00
63715;BME280;49858;48.956;9.076;2023-03-23T10:55:02;98263.72;;;13.97;100.00
63715;BME280;49858;48.956;9.076;2023-03-23T10:57:32;98259.81;;;14.20;100.00
63715;BME280;49858;48.956;9.076;2023-03-23T11:00:04;98259.44;;;14.32;100.00
63715;BME280;49858;48.956;9.076;2023-03-23T11:02:38;98259.38;;;14.11;100.00
63715;BME280;49858;48.956;9.076;2023-03-23T11:05:15;98263.78;;;14.22;100.00
63715;BME280;49858;48.956;9.076;2023-03-23T11:07:49;98256.56;;;13.96;100.00
63715;BME280;49858;48.956;9.076;2023-03-23T11:10:22;98255.47;;;14.19;100.00
63715;BME280;49858;48.956;9.076;2023-03-23T11:12:51;98256.09;;;13.76;100.00
63715;BME280;49858;48.956;9.076;2023-03-23T11:15:26;98268.88;;;14.10;100.00
63715;BME280;49858;48.956;9.076;2023-03-23T11:17:56;98250.28;;;14.06;100.00
63715;BME280;49858;48.956;9.076;2023-03-23T11:20:25;98244.34;;;14.04;100.00
63715;BME280;49858;48.956;9.076;2023-03-23T11:22:55;98243.63;;;14.29;100.00
63715;BME280;49858;48.956;9.076;2023-03-23T11:25:22;98249.06;;;14.00;100.00
63715;BME280;49858;48.956;9.076;2023-03-23T11:27:50;98247.53;;;14.14;100.00
63715;BME280;49858;48.956;9.076;2023-03-23T11:30:23;98245.22;;;14.44;100.00
63715;BME280;49858;48.956;9.076;2023-03-23T11:32:53;98248.38;;;14.28;100.00
63715;BME280;49858;48.956;9.076;2023-03-23T11:35:22;98248.41;;;14.43;100.00
63715;BME280;49858;48.956;9.076;2023-03-23T11:37:52;98238.97;;;14.51;100.00
63715;BME280;49858;48.956;9.076;2023-03-23T11:40:23;98244.91;;;14.49;100.00
63715;BME280;49858;48.956;9.076;2023-03-23T11:42:58;98244.50;;;14.62;100.00
63715;BME280;49858;48.956;9.076;2023-03-23T11:45:34;98238.16;;;14.72;100.00
63715;BME280;49858;48.956;9.076;2023-03-23T11:48:10;98236.22;;;14.97;100.00
63715;BME280;49858;48.956;9.076;2023-03-23T11:50:47;98246.81;;;15.42;100.00
63715;BME280;49858;48.956;9.076;2023-03-23T11:53:22;98246.44;;;15.36;100.00
63715;BME280;49858;48.956;9.076;2023-03-23T11:55:58;98247.25;;;15.26;100.00
63715;BME280;49858;48.956;9.076;2023-03-23T11:58:27;98250.03;;;15.19;100.00
63715;BME280;49858;48.956;9.076;2023-03-23T12:01:05;98246.06;;;15.34;100.00
63715;BME280;49858;48.956;9.076;2023-03-23T12:03:51;98240.44;;;15.55;100.00
63715;BME280;49858;48.956;9.076;2023-03-23T12:06:27;98252.34;;;15.42;100.00
63715;BME280;49858;48.956;9.076;2023-03-23T12:09:08;98250.41;;;15.14;100.00
63715;BME280;49858;48.956;9.076;2023-03-23T12:11:48;98245.25;;;15.37;100.00
63715;BME280;49858;48.956;9.076;2023-03-23T12:14:22;98243.97;;;15.74;100.00
63715;BME280;49858;48.956;9.076;2023-03-23T12:17:03;98244.81;;;15.46;100.00
63715;BME280;49858;48.956;9.076;2023-03-23T12:19:41;98235.88;;;16.12;100.00
63715;BME280;49858;48.956;9.076;2023-03-23T12:22:24;98238.31;;;16.02;100.00
63715;BME280;49858;48.956;9.076;2023-03-23T12:25:09;98228.75;;;16.70;100.00
63715;BME280;49858;48.956;9.076;2023-03-23T12:27:48;98230.91;;;17.03;100.00
63715;BME280;49858;48.956;9.076;2023-03-23T12:30:24;98224.34;;;16.79;100.00
63715;BME280;49858;48.956;9.076;2023-03-23T12:33:15;98213.53;;;17.33;100.00
63715;BME280;49858;48.956;9.076;2023-03-23T12:35:50;98206.88;;;17.24;100.00
63715;BME280;49858;48.956;9.076;2023-03-23T12:41:15;98209.00;;;17.13;100.00
63715;BME280;49858;48.956;9.076;2023-03-23T13:16:05;98162.59;;;17.40;100.00
63715;BME280;49858;48.956;9.076;2023-03-23T14:11:17;98093.59;;;17.01;100.00
63715;BME280;49858;48.956;9.076;2023-03-23T15:46:48;98079.22;;;18.72;100.00
63715;BME280;49858;48.956;9.076;2023-03-23T15:49:16;98090.19;;;18.35;100.00
63715;BME280;49858;48.956;9.076;2023-03-23T15:51:42;98084.94;;;18.14;100.00
63715;BME280;49858;48.956;9.076;2023-03-23T15:54:12;98076.75;;;18.77;100.00
63715;BME280;49858;48.956;9.076;2023-03-23T15:56:40;98083.72;;;18.85;100.00
63715;BME280;49858;48.956;9.076;2023-03-23T15:59:07;98083.97;;;18.95;100.00
63715;BME280;49858;48.956;9.076;2023-03-23T16:01:37;98086.25;;;19.00;100.00
63715;BME280;49858;48.956;9.076;2023-03-23T16:04:09;98084.13;;;19.27;100.00
63715;BME280;49858;48.956;9.076;2023-03-23T16:06:38;98077.66;;;18.67;100.00
63715;BME280;49858;48.956;9.076;2023-03-23T16:09:07;98084.41;;;18.93;100.00
63715;BME280;49858;48.956;9.076;2023-03-23T16:11:40;98092.28;;;18.51;100.00
63715;BME280;49858;48.956;9.076;2023-03-23T16:14:08;98093.59;;;18.67;100.00
63715;BME280;49858;48.956;9.076;2023-03-23T16:16:37;98092.31;;;18.95;100.00
63715;BME280;49858;48.956;9.076;2023-03-23T16:19:08;98094.59;;;19.00;100.00
63715;BME280;49858;48.956;9.076;2023-03-23T16:21:37;98091.03;;;18.79;100.00
63715;BME280;49858;48.956;9.076;2023-03-23T16:24:06;98094.53;;;18.36;100.00
63715;BME280;49858;48.956;9.076;2023-03-23T16:26:34;98095.41;;;18.53;100.00
63715;BME280;49858;48.956;9.076;2023-03-23T16:29:09;98097.84;;;18.28;100.00
63715;BME280;49858;48.956;9.076;2023-03-23T16:31:54;98095.31;;;18.60;100.00
63715;BME280;49858;48.956;9.076;2023-03-23T16:34:23;98096.63;;;18.29;100.00
63715;BME280;49858;48.956;9.076;2023-03-23T16:36:54;98096.66;;;18.76;100.00
63715;BME280;49858;48.956;9.076;2023-03-23T16:39:22;98094.53;;;18.60;100.00
63715;BME280;49858;48.956;9.076;2023-03-23T16:41:50;98093.81;;;18.05;100.00
63715;BME280;49858;48.956;9.076;2023-03-23T16:44:18;98103.91;;;17.96;100.00
63715;BME280;49858;48.956;9.076;2023-03-23T16:46:46;98104.63;;;18.27;100.00
63715;BME280;49858;48.956;9.076;2023-03-23T16:49:13;98098.94;;;18.34;100.00
63715;BME280;49858;48.956;9.076;2023-03-23T16:51:43;98103.00;;;18.76;100.00
63715;BME280;49858;48.956;9.076;2023-03-23T16:54:10;98091.88;;;18.76;100.00